Time;durP1;ratioP1;P1;durP2;ratioP2;P2;SDS_P1;SDS_P2;PMS_P1;PMS_P2;Temp;Humidity;BMP_temperature;BMP_pressure;BME280_temperature;BME280_humidity;BME280_pressure;Samples;Min_cycle;Max_cycle;Signal;HPM_P1;HPM_P2
2023/05/19 00:01:13;;;;;;;11.93;5.10;;;8.90;99.90;;;;;;5077058;28;20059;-57
2023/05/19 00:03:53;;;;;;;14.05;4.97;;;8.90;99.90;;;;;;5060326;28;20049;-57
2023/05/19 00:06:28;;;;;;;13.80;5.57;;;8.90;99.90;;;;;;5076661;28;20044;-57
2023/05/19 00:09:15;;;;;;;11.77;6.03;;;8.90;99.90;;;;;;5078304;28;20480;-56
2023/05/19 00:11:41;;;;;;;13.35;5.53;;;8.90;99.90;;;;;;5077811;28;20044;-57
2023/05/19 00:14:08;;;;;;;12.68;5.20;;;8.90;99.90;;;;;;5077086;28;20507;-57
2023/05/19 00:16:36;;;;;;;12.70;5.07;;;8.80;99.90;;;;;;5080010;28;20052;-56
2023/05/19 00:19:04;;;;;;;12.20;6.32;;;8.80;99.90;;;;;;5083311;28;20617;-57
2023/05/19 00:21:30;;;;;;;12.32;5.10;;;8.70;99.90;;;;;;5085208;28;20617;-57
2023/05/19 00:23:56;;;;;;;13.90;6.47;;;8.70;99.90;;;;;;5083624;28;20063;-56
2023/05/19 00:26:22;;;;;;;13.70;5.22;;;8.70;99.90;;;;;;5085060;28;20032;-57
2023/05/19 00:28:49;;;;;;;13.07;5.50;;;8.70;99.90;;;;;;5084595;28;20085;-56
2023/05/19 00:31:15;;;;;;;13.07;6.00;;;8.60;99.90;;;;;;5083264;28;20146;-56
2023/05/19 00:33:41;;;;;;;12.90;5.22;;;8.70;99.90;;;;;;5066478;28;20499;-56
2023/05/19 00:36:07;;;;;;;10.65;5.53;;;8.60;99.90;;;;;;5082995;28;20048;-57
2023/05/19 00:38:34;;;;;;;12.05;5.28;;;8.70;99.90;;;;;;5067253;28;20037;-57
2023/05/19 00:41:01;;;;;;;14.88;5.53;;;8.60;99.90;;;;;;5083443;28;20044;-57
2023/05/19 00:43:28;;;;;;;12.07;5.57;;;8.50;99.90;;;;;;5084827;28;20040;-57
2023/05/19 00:45:55;;;;;;;12.63;5.30;;;8.60;99.90;;;;;;5084260;28;20102;-57
2023/05/19 00:48:21;;;;;;;13.07;5.28;;;8.50;99.90;;;;;;5083173;28;20063;-57
2023/05/19 00:50:48;;;;;;;11.40;5.38;;;8.50;99.90;;;;;;5084898;28;20459;-57
2023/05/19 00:53:17;;;;;;;11.93;5.15;;;8.50;99.90;;;;;;5083060;28;20056;-57
2023/05/19 00:55:43;;;;;;;13.25;4.90;;;8.40;99.90;;;;;;5084148;28;20045;-57
2023/05/19 00:58:11;;;;;;;11.90;4.80;;;8.40;99.90;;;;;;5083178;28;20040;-57
2023/05/19 01:00:38;;;;;;;14.05;5.10;;;8.40;99.90;;;;;;5084471;28;20052;-57
2023/05/19 01:03:11;;;;;;;14.32;5.15;;;8.50;99.90;;;;;;5084067;28;20122;-57
2023/05/19 01:05:43;;;;;;;13.35;5.18;;;8.60;99.90;;;;;;5083242;28;20058;-57
2023/05/19 01:08:09;;;;;;;16.15;5.30;;;8.60;99.90;;;;;;5084728;28;20036;-57
2023/05/19 01:10:35;;;;;;;11.85;5.40;;;8.50;99.90;;;;;;5082635;28;20104;-57
2023/05/19 01:13:03;;;;;;;12.32;4.68;;;8.50;99.90;;;;;;5085172;28;20059;-57
2023/05/19 01:15:32;;;;;;;11.93;5.18;;;8.50;99.90;;;;;;5082918;28;20053;-57
2023/05/19 01:18:09;;;;;;;15.00;4.80;;;8.40;99.90;;;;;;5084130;28;20055;-55
2023/05/19 01:20:45;;;;;;;10.65;4.50;;;8.50;99.90;;;;;;5082821;28;20048;-56
2023/05/19 01:23:35;;;;;;;11.82;4.57;;;8.50;99.90;;;;;;5082685;28;20041;-57
2023/05/19 01:26:22;;;;;;;9.10;4.63;;;8.50;99.90;;;;;;5084504;28;20249;-57
2023/05/19 01:29:36;;;;;;;12.18;4.45;;;8.40;99.90;;;;;;5079616;28;20040;-57
2023/05/19 01:32:05;;;;;;;14.48;4.85;;;8.40;99.90;;;;;;5065088;28;20040;-57
2023/05/19 01:34:33;;;;;;;13.88;4.82;;;8.50;99.90;;;;;;5083839;28;20047;-57
2023/05/19 01:37:01;;;;;;;12.95;4.75;;;8.50;99.90;;;;;;5100411;28;20088;-57
2023/05/19 01:39:27;;;;;;;9.77;4.50;;;8.40;99.90;;;;;;5100878;28;20044;-57
2023/05/19 01:41:54;;;;;;;11.55;4.45;;;8.50;99.90;;;;;;5100972;28;20507;-57
2023/05/19 01:44:21;;;;;;;11.82;4.50;;;8.40;99.90;;;;;;5099727;28;20107;-57
2023/05/19 01:46:47;;;;;;;12.88;4.22;;;8.40;99.90;;;;;;5101264;28;20052;-57
2023/05/19 01:49:13;;;;;;;11.43;4.75;;;8.30;99.90;;;;;;5099369;28;20036;-57
2023/05/19 01:51:40;;;;;;;15.35;6.05;;;8.40;99.90;;;;;;5101647;28;20097;-56
2023/05/19 01:54:05;;;;;;;11.50;4.47;;;8.30;99.90;;;;;;5099657;28;20036;-57
2023/05/19 01:56:51;;;;;;;12.23;4.25;;;8.30;99.90;;;;;;5100607;28;20047;-56
2023/05/19 01:59:40;;;;;;;13.05;4.45;;;8.30;99.90;;;;;;5100677;28;20096;-56
2023/05/19 02:02:32;;;;;;;12.27;4.13;;;8.40;99.90;;;;;;5099084;28;20054;-57
2023/05/19 02:05:28;;;;;;;12.07;4.30;;;8.30;99.90;;;;;;5100526;28;20051;-57
2023/05/19 02:08:09;;;;;;;9.80;3.97;;;8.40;99.90;;;;;;5092130;28;20084;-57
2023/05/19 02:10:39;;;;;;;13.30;4.15;;;8.40;99.90;;;;;;5098933;28;20055;-58
2023/05/19 02:13:07;;;;;;;13.65;4.00;;;8.40;99.90;;;;;;5100979;28;20071;-57
2023/05/19 02:15:40;;;;;;;10.10;4.10;;;8.50;99.90;;;;;;5099374;28;20047;-57
2023/05/19 02:18:10;;;;;;;11.25;4.68;;;8.40;99.90;;;;;;5099841;28;20087;-57
2023/05/19 02:20:39;;;;;;;18.92;7.43;;;8.30;99.90;;;;;;5100480;28;20048;-56
2023/05/19 02:23:05;;;;;;;15.80;7.85;;;8.40;99.90;;;;;;5098758;28;20182;-57
2023/05/19 02:25:31;;;;;;;23.27;11.68;;;8.20;99.90;;;;;;5100778;28;20040;-57
2023/05/19 02:27:58;;;;;;;14.10;7.65;;;8.20;99.90;;;;;;5098475;28;20376;-58
2023/05/19 02:30:24;;;;;;;14.05;7.45;;;8.20;99.90;;;;;;5081921;28;20493;-57
2023/05/19 02:32:52;;;;;;;15.07;5.50;;;8.30;99.90;;;;;;5099221;28;20091;-57
2023/05/19 02:35:19;;;;;;;12.68;5.38;;;8.30;99.90;;;;;;5099058;28;20092;-56
2023/05/19 02:37:45;;;;;;;17.20;6.05;;;8.10;99.90;;;;;;5100225;28;20051;-57
2023/05/19 02:40:10;;;;;;;11.77;5.43;;;8.30;99.90;;;;;;5097991;28;20598;-57
2023/05/19 02:42:36;;;;;;;17.60;7.30;;;8.20;99.90;;;;;;5100440;28;20050;-57
2023/05/19 02:45:02;;;;;;;21.23;9.65;;;8.20;99.90;;;;;;5098217;28;20038;-57
2023/05/19 02:47:28;;;;;;;17.60;11.05;;;8.20;99.90;;;;;;5100281;28;20040;-58
2023/05/19 02:49:53;;;;;;;18.13;11.13;;;8.10;99.90;;;;;;5098814;28;20079;-57
2023/05/19 02:52:19;;;;;;;14.98;11.80;;;8.40;99.90;;;;;;5099139;28;20047;-57
2023/05/19 02:54:45;;;;;;;15.23;7.93;;;8.10;99.90;;;;;;5099644;28;20052;-56
2023/05/19 02:57:10;;;;;;;14.98;7.25;;;8.20;99.90;;;;;;5098357;28;20080;-57
2023/05/19 02:59:36;;;;;;;12.02;5.25;;;8.10;99.90;;;;;;5081232;28;20077;-57
2023/05/19 03:02:02;;;;;;;10.60;4.85;;;8.10;99.90;;;;;;5097763;28;20045;-57
2023/05/19 03:04:28;;;;;;;12.00;4.45;;;8.00;99.90;;;;;;5100101;28;20074;-58
2023/05/19 03:06:54;;;;;;;12.55;4.97;;;8.00;99.90;;;;;;5098436;28;20040;-58
2023/05/19 03:09:20;;;;;;;14.55;6.53;;;8.00;99.90;;;;;;5099226;28;20044;-58
2023/05/19 03:11:46;;;;;;;18.05;7.65;;;8.00;99.90;;;;;;5099178;28;20101;-58
2023/05/19 03:14:12;;;;;;;12.82;5.32;;;8.00;99.90;;;;;;5097981;28;20112;-58
2023/05/19 03:16:41;;;;;;;14.60;5.03;;;8.00;99.90;;;;;;5099432;28;20056;-58
2023/05/19 03:19:08;;;;;;;11.27;4.28;;;7.90;99.90;;;;;;5097816;28;20095;-58
2023/05/19 03:21:34;;;;;;;8.57;3.83;;;7.90;99.90;;;;;;5099661;28;20043;-57
2023/05/19 03:24:00;;;;;;;13.57;4.07;;;7.90;99.90;;;;;;5098031;28;20376;-58
2023/05/19 03:26:26;;;;;;;12.68;3.85;;;8.00;99.90;;;;;;5080713;28;20048;-57
2023/05/19 03:28:51;;;;;;;11.52;4.18;;;8.10;99.90;;;;;;5080498;28;20048;-58
2023/05/19 03:31:18;;;;;;;13.13;4.72;;;7.90;99.90;;;;;;5079687;28;20463;-58
2023/05/19 03:33:43;;;;;;;14.10;4.00;;;8.00;99.90;;;;;;5098893;28;20086;-59
2023/05/19 03:36:11;;;;;;;10.95;4.20;;;7.90;99.90;;;;;;5097492;28;20103;-57
2023/05/19 03:38:37;;;;;;;11.75;3.90;;;8.00;99.90;;;;;;5099436;28;20040;-58
2023/05/19 03:41:03;;;;;;;10.13;4.50;;;7.90;99.90;;;;;;5097591;28;20099;-57
2023/05/19 03:43:28;;;;;;;12.55;4.28;;;8.00;99.90;;;;;;5098554;28;20071;-58
2023/05/19 03:45:54;;;;;;;12.85;4.68;;;8.10;99.90;;;;;;5080428;28;20047;-58
2023/05/19 03:48:19;;;;;;;13.57;4.90;;;7.80;99.90;;;;;;5097750;28;20052;-58
2023/05/19 03:50:47;;;;;;;8.60;4.10;;;7.90;99.90;;;;;;5098705;28;20448;-58
2023/05/19 03:53:13;;;;;;;12.45;4.65;;;8.00;99.90;;;;;;5096677;28;20055;-57
2023/05/19 03:55:38;;;;;;;8.60;3.92;;;7.80;99.90;;;;;;5099302;28;20055;-57
2023/05/19 03:58:05;;;;;;;10.65;3.40;;;7.90;99.90;;;;;;5096904;28;20040;-57
2023/05/19 04:00:30;;;;;;;8.50;3.78;;;7.90;99.90;;;;;;5098749;28;20055;-58
2023/05/19 04:02:56;;;;;;;11.13;3.80;;;7.90;99.90;;;;;;5098178;28;20052;-57
2023/05/19 04:05:22;;;;;;;9.25;4.03;;;7.90;99.90;;;;;;5097446;28;20032;-56
2023/05/19 04:07:47;;;;;;;10.10;3.33;;;7.90;99.90;;;;;;5098757;28;20521;-57
2023/05/19 04:10:13;;;;;;;10.43;3.70;;;7.90;99.90;;;;;;5096942;28;20051;-57
2023/05/19 04:12:39;;;;;;;9.77;3.78;;;7.70;99.90;;;;;;5080565;28;20076;-57
2023/05/19 04:15:05;;;;;;;6.05;2.85;;;7.80;99.90;;;;;;5097203;28;20097;-57
2023/05/19 04:17:31;;;;;;;10.07;3.70;;;7.90;99.90;;;;;;5098656;28;20911;-57
2023/05/19 04:19:56;;;;;;;8.50;3.40;;;7.90;99.90;;;;;;5097682;28;20036;-57
2023/05/19 04:22:22;;;;;;;9.77;3.85;;;8.00;99.90;;;;;;5097730;28;20095;-58
2023/05/19 04:24:49;;;;;;;11.55;3.80;;;8.10;99.90;;;;;;5098507;28;20044;-58
2023/05/19 04:27:16;;;;;;;9.85;3.92;;;8.20;99.90;;;;;;5096696;28;20095;-57
2023/05/19 04:29:42;;;;;;;10.88;4.20;;;8.20;99.90;;;;;;5080035;28;20040;-57
2023/05/19 04:32:09;;;;;;;13.45;4.95;;;8.30;99.90;;;;;;5096722;28;20079;-57
2023/05/19 04:34:39;;;;;;;11.05;3.85;;;8.30;99.90;;;;;;5098355;28;20088;-57
2023/05/19 04:37:06;;;;;;;10.88;4.40;;;8.30;99.90;;;;;;5097742;28;20048;-57
2023/05/19 04:39:32;;;;;;;14.10;4.43;;;8.50;99.90;;;;;;5097210;28;20078;-58
2023/05/19 04:41:58;;;;;;;8.70;3.40;;;8.50;99.90;;;;;;5098203;28;20056;-58
2023/05/19 04:44:25;;;;;;;8.40;3.67;;;8.60;99.90;;;;;;5078410;28;20043;-57
2023/05/19 04:46:53;;;;;;;15.07;3.97;;;8.60;99.90;;;;;;5098756;28;20067;-57
2023/05/19 04:49:19;;;;;;;10.57;3.95;;;8.60;99.90;;;;;;5096792;28;20101;-57
2023/05/19 04:51:49;;;;;;;7.88;3.35;;;8.70;99.90;;;;;;5098556;28;20048;-58
2023/05/19 04:54:14;;;;;;;13.77;4.03;;;9.00;99.90;;;;;;5097487;28;20040;-58
2023/05/19 04:56:42;;;;;;;11.40;4.00;;;9.10;99.90;;;;;;5097031;28;20636;-58
2023/05/19 04:59:08;;;;;;;13.55;4.30;;;9.00;99.90;;;;;;5098086;28;20044;-57
2023/05/19 05:01:39;;;;;;;10.45;4.05;;;9.30;99.90;;;;;;5096495;28;20055;-57
2023/05/19 05:04:05;;;;;;;14.63;4.32;;;9.20;99.90;;;;;;5101333;28;20044;-57
2023/05/19 05:06:31;;;;;;;11.93;3.90;;;9.50;99.90;;;;;;5100409;28;20578;-57
2023/05/19 05:08:57;;;;;;;13.05;4.65;;;9.50;99.90;;;;;;5101791;28;20044;-57
2023/05/19 05:11:23;;;;;;;10.43;3.90;;;9.80;99.90;;;;;;5101322;28;20359;-57
2023/05/19 05:13:49;;;;;;;11.07;4.43;;;9.70;99.90;;;;;;5100574;28;20043;-57
2023/05/19 05:16:15;;;;;;;12.98;4.60;;;9.90;99.90;;;;;;5101839;28;20153;-57
2023/05/19 05:18:41;;;;;;;14.00;4.88;;;10.00;99.90;;;;;;5099931;28;20051;-57
2023/05/19 05:21:07;;;;;;;13.75;4.90;;;9.90;99.90;;;;;;5083800;28;20052;-57
2023/05/19 05:23:33;;;;;;;16.38;5.20;;;10.00;99.90;;;;;;5099982;28;20051;-57
2023/05/19 05:26:08;;;;;;;17.45;4.63;;;10.10;99.90;;;;;;5101760;28;20059;-58
2023/05/19 05:28:33;;;;;;;13.32;5.13;;;10.20;99.90;;;;;;5100962;28;20058;-57
2023/05/19 05:30:59;;;;;;;12.52;5.20;;;10.30;99.90;;;;;;5100378;28;20690;-58
2023/05/19 05:33:25;;;;;;;13.65;5.82;;;10.30;99.90;;;;;;5101247;28;20055;-57
2023/05/19 05:35:51;;;;;;;17.23;4.78;;;10.40;99.90;;;;;;5099460;28;20040;-57
2023/05/19 05:38:17;;;;;;;14.63;5.60;;;10.40;99.90;;;;;;5101738;28;20081;-56
2023/05/19 05:40:43;;;;;;;13.10;5.05;;;10.40;99.90;;;;;;5099669;28;20423;-58
2023/05/19 05:43:08;;;;;;;13.70;4.95;;;10.50;99.90;;;;;;5101441;28;20044;-57
2023/05/19 05:45:34;;;;;;;16.80;5.72;;;10.50;99.90;;;;;;5100319;28;20059;-57
2023/05/19 05:48:00;;;;;;;21.73;6.43;;;10.60;99.90;;;;;;5065340;28;20425;-57
2023/05/19 05:50:26;;;;;;;15.85;5.60;;;10.60;99.90;;;;;;5101007;28;20051;-58
2023/05/19 05:52:54;;;;;;;13.93;6.05;;;10.80;99.90;;;;;;5099693;28;20081;-58
2023/05/19 05:55:21;;;;;;;16.30;5.55;;;11.00;99.90;;;;;;5101147;28;20096;-58
2023/05/19 05:57:49;;;;;;;15.00;6.10;;;10.90;99.90;;;;;;5099382;28;20141;-58
2023/05/19 06:00:15;;;;;;;14.90;5.82;;;11.00;99.90;;;;;;5101065;28;20055;-58
2023/05/19 06:02:46;;;;;;;13.45;5.95;;;11.20;99.90;;;;;;5099752;28;20076;-58
2023/05/19 06:05:12;;;;;;;15.32;6.43;;;11.20;99.90;;;;;;5099731;28;20071;-58
2023/05/19 06:07:39;;;;;;;12.73;5.72;;;11.40;99.90;;;;;;5100605;28;20101;-58
2023/05/19 06:10:06;;;;;;;13.48;5.60;;;11.30;99.90;;;;;;5098897;28;20098;-58
2023/05/19 06:12:32;;;;;;;14.00;6.07;;;11.30;99.90;;;;;;5101131;28;20221;-58
2023/05/19 06:14:58;;;;;;;11.82;5.20;;;11.30;99.90;;;;;;5098348;28;20109;-59
2023/05/19 06:17:24;;;;;;;10.77;5.47;;;11.30;99.90;;;;;;5101037;28;20036;-59
2023/05/19 06:19:49;;;;;;;13.35;5.60;;;11.40;99.90;;;;;;5099564;28;20051;-58
2023/05/19 06:22:15;;;;;;;16.88;6.97;;;11.60;99.90;;;;;;5099807;28;20399;-58
2023/05/19 06:24:41;;;;;;;12.70;5.55;;;11.60;99.90;;;;;;5100079;28;20048;-58
2023/05/19 06:27:06;;;;;;;12.18;5.65;;;11.60;99.90;;;;;;5080390;28;20099;-58
2023/05/19 06:29:32;;;;;;;14.73;6.00;;;11.70;99.90;;;;;;5100228;28;20123;-58
2023/05/19 06:31:58;;;;;;;16.95;6.32;;;11.90;99.90;;;;;;5098185;28;20064;-58
2023/05/19 06:34:24;;;;;;;14.30;5.57;;;12.00;99.90;;;;;;5100511;28;20174;-58
2023/05/19 06:36:49;;;;;;;11.05;5.78;;;12.10;99.90;;;;;;5099013;28;20415;-58
2023/05/19 06:39:15;;;;;;;15.45;5.70;;;12.20;99.90;;;;;;5099853;28;20048;-58
2023/05/19 06:41:41;;;;;;;13.45;5.88;;;12.20;99.90;;;;;;5099764;28;20044;-58
2023/05/19 06:44:10;;;;;;;17.98;6.22;;;12.40;99.90;;;;;;5098677;28;20055;-58
2023/05/19 06:46:35;;;;;;;15.90;5.68;;;12.50;99.90;;;;;;5099983;28;20511;-59
2023/05/19 06:49:01;;;;;;;11.27;5.38;;;12.60;99.90;;;;;;5098112;28;20052;-59
2023/05/19 06:51:27;;;;;;;14.15;5.70;;;12.60;99.90;;;;;;5100401;28;20044;-59
2023/05/19 06:53:52;;;;;;;11.73;5.38;;;12.60;99.90;;;;;;5098376;28;20164;-59
2023/05/19 06:56:18;;;;;;;11.50;4.95;;;12.60;99.90;;;;;;5099741;28;20115;-59
2023/05/19 06:58:44;;;;;;;12.18;5.50;;;12.70;99.90;;;;;;5099328;28;20032;-59
2023/05/19 07:01:10;;;;;;;14.43;5.38;;;12.80;99.90;;;;;;5098167;28;20036;-58
2023/05/19 07:03:36;;;;;;;11.73;5.55;;;12.80;99.90;;;;;;5099472;28;20092;-56
2023/05/19 07:06:02;;;;;;;9.90;5.53;;;12.90;99.90;;;;;;5098026;28;20100;-58
2023/05/19 07:08:28;;;;;;;15.65;6.10;;;13.10;99.90;;;;;;5099828;28;20078;-59
2023/05/19 07:10:56;;;;;;;14.23;5.78;;;13.10;99.90;;;;;;5097954;28;20492;-57
2023/05/19 07:13:22;;;;;;;12.63;4.93;;;13.20;99.90;;;;;;5081519;28;20044;-58
2023/05/19 07:15:48;;;;;;;12.93;5.72;;;13.30;99.90;;;;;;5098759;28;20810;-58
2023/05/19 07:18:14;;;;;;;14.18;4.63;;;13.40;99.90;;;;;;5080197;28;20558;-58
2023/05/19 07:20:40;;;;;;;10.45;4.15;;;13.40;99.90;;;;;;5099248;28;20042;-58
2023/05/19 07:23:06;;;;;;;14.13;3.92;;;13.50;99.90;;;;;;5079318;28;20040;-58
2023/05/19 07:25:32;;;;;;;10.52;4.53;;;13.50;99.90;;;;;;5099437;28;20051;-59
2023/05/19 07:27:58;;;;;;;9.57;4.20;;;13.70;99.90;;;;;;5096998;28;20062;-58
2023/05/19 07:30:26;;;;;;;13.23;3.95;;;13.70;99.90;;;;;;5098957;28;20095;-59
2023/05/19 07:32:52;;;;;;;14.82;3.72;;;13.80;99.90;;;;;;5081999;28;20049;-59
2023/05/19 07:35:18;;;;;;;8.38;3.65;;;13.90;99.90;;;;;;5057646;28;20053;-59
2023/05/19 07:37:44;;;;;;;12.20;3.83;;;14.00;99.90;;;;;;5058611;28;20060;-59
2023/05/19 07:40:10;;;;;;;7.65;3.25;;;14.10;99.90;;;;;;5057156;28;20037;-59
2023/05/19 07:42:36;;;;;;;9.60;3.35;;;14.30;99.90;;;;;;5059235;28;20059;-59
2023/05/19 07:45:02;;;;;;;11.05;3.35;;;14.20;99.90;;;;;;5056906;28;20433;-58
2023/05/19 07:47:29;;;;;;;8.63;3.17;;;14.20;99.90;;;;;;5058766;28;20073;-61
2023/05/19 07:49:54;;;;;;;7.78;2.88;;;14.20;99.90;;;;;;5057772;28;20060;-58
2023/05/19 07:52:20;;;;;;;7.80;3.00;;;14.30;99.90;;;;;;5057501;28;20064;-58
2023/05/19 07:54:45;;;;;;;10.02;3.20;;;14.40;99.90;;;;;;5058483;28;20104;-59
2023/05/19 07:57:11;;;;;;;9.85;2.95;;;14.40;99.90;;;;;;5056991;28;20045;-59
2023/05/19 07:59:37;;;;;;;9.18;2.92;;;14.50;99.90;;;;;;5058312;28;20515;-59
2023/05/19 08:02:03;;;;;;;12.18;4.03;;;14.50;99.90;;;;;;5038881;28;20040;-59
2023/05/19 08:04:28;;;;;;;12.48;3.20;;;14.60;99.90;;;;;;5058713;28;20041;-58
2023/05/19 08:06:54;;;;;;;13.82;4.00;;;14.60;99.90;;;;;;5057331;28;20105;-58
2023/05/19 08:09:19;;;;;;;9.43;3.20;;;14.70;99.90;;;;;;5057543;28;20056;-58
2023/05/19 08:11:48;;;;;;;13.40;5.30;;;14.70;99.90;;;;;;5023754;28;20087;-58
2023/05/19 08:14:14;;;;;;;11.43;4.22;;;14.80;99.90;;;;;;5056517;28;20044;-59
2023/05/19 08:16:41;;;;;;;10.30;3.53;;;14.80;99.90;;;;;;5058487;28;20089;-59
2023/05/19 08:19:08;;;;;;;10.95;3.70;;;14.90;99.90;;;;;;5056726;28;20121;-59
2023/05/19 08:21:34;;;;;;;11.48;3.88;;;15.10;99.90;;;;;;5058495;28;20512;-58
2023/05/19 08:24:00;;;;;;;13.63;3.65;;;15.00;99.90;;;;;;5057095;28;20073;-58
2023/05/19 08:26:27;;;;;;;10.70;3.38;;;15.00;99.90;;;;;;5057214;28;20045;-59
2023/05/19 08:28:52;;;;;;;7.45;2.88;;;15.00;99.90;;;;;;5057667;28;20049;-58
2023/05/19 08:31:18;;;;;;;8.63;2.90;;;14.80;99.90;;;;;;5056342;28;20431;-59
2023/05/19 08:33:44;;;;;;;9.00;3.22;;;15.00;99.90;;;;;;5057957;28;20093;-59
2023/05/19 08:36:10;;;;;;;9.65;3.08;;;15.00;99.90;;;;;;5056221;28;20427;-58
2023/05/19 08:38:36;;;;;;;11.77;3.38;;;15.10;99.90;;;;;;5060549;28;20041;-59
2023/05/19 08:41:02;;;;;;;8.82;3.55;;;15.20;99.90;;;;;;5061012;28;20037;-59
2023/05/19 08:43:27;;;;;;;8.60;3.28;;;15.50;99.90;;;;;;5061240;28;20403;-59
2023/05/19 08:45:54;;;;;;;9.00;3.40;;;15.60;99.90;;;;;;5061927;28;20124;-59
2023/05/19 08:48:21;;;;;;;10.10;3.47;;;15.60;99.90;;;;;;5060491;28;20060;-56
2023/05/19 08:51:18;;;;;;;9.27;4.15;;;15.70;99.90;;;;;;5043949;28;20052;-59
2023/05/19 08:53:49;;;;;;;9.93;3.60;;;15.90;99.90;;;;;;5054576;28;20056;-58
2023/05/19 08:56:20;;;;;;;14.00;3.80;;;15.90;99.90;;;;;;5061510;28;20045;-59
2023/05/19 08:58:48;;;;;;;9.07;4.00;;;16.00;99.90;;;;;;5061647;28;20095;-58
2023/05/19 09:01:18;;;;;;;11.93;3.53;;;15.90;99.90;;;;;;5059920;28;20104;-58
2023/05/19 09:03:44;;;;;;;10.65;3.75;;;15.80;99.90;;;;;;5061752;28;20049;-59
2023/05/19 09:06:13;;;;;;;7.50;3.35;;;15.80;99.90;;;;;;5060079;28;20056;-58
2023/05/19 09:08:40;;;;;;;7.70;3.30;;;15.90;99.90;;;;;;5061843;28;20045;-58
2023/05/19 09:11:06;;;;;;;11.40;3.42;;;16.00;99.90;;;;;;5060539;28;20059;-59
2023/05/19 09:13:32;;;;;;;9.05;3.10;;;15.90;99.90;;;;;;5060756;28;20055;-58
2023/05/19 09:15:58;;;;;;;10.20;3.70;;;16.00;99.90;;;;;;5061419;28;20041;-58
2023/05/19 09:18:25;;;;;;;10.73;3.45;;;16.00;99.90;;;;;;5059722;28;20124;-57
2023/05/19 09:20:59;;;;;;;9.40;3.83;;;16.00;99.90;;;;;;5061578;28;20060;-59
2023/05/19 09:23:30;;;;;;;10.95;3.50;;;16.10;99.90;;;;;;5059784;28;20045;-58
2023/05/19 09:25:56;;;;;;;12.13;3.05;;;16.10;99.90;;;;;;5061579;28;20049;-58
2023/05/19 09:28:34;;;;;;;10.57;3.50;;;16.10;99.90;;;;;;5060428;28;20037;-58
2023/05/19 09:31:07;;;;;;;11.95;3.40;;;16.20;99.90;;;;;;5059639;28;20041;-59
2023/05/19 09:33:41;;;;;;;7.40;2.67;;;16.20;99.90;;;;;;5089000;28;20089;-58
2023/05/19 09:36:12;;;;;;;9.98;3.10;;;16.20;99.90;;;;;;5099569;28;20048;-59
2023/05/19 09:38:38;;;;;;;10.32;3.70;;;16.20;99.90;;;;;;5101671;28;20040;-58
2023/05/19 09:41:05;;;;;;;9.75;3.97;;;16.20;99.90;;;;;;5100179;28;20089;-59
2023/05/19 09:43:33;;;;;;;8.93;3.13;;;16.30;99.90;;;;;;5100827;28;20125;-59
2023/05/19 09:46:02;;;;;;;10.65;3.58;;;16.30;99.90;;;;;;5100925;28;20091;-59
2023/05/19 09:48:29;;;;;;;7.93;2.90;;;16.30;99.90;;;;;;5081497;28;20043;-59
2023/05/19 09:50:56;;;;;;;8.40;3.33;;;16.30;99.90;;;;;;5100461;28;20055;-59
2023/05/19 09:53:22;;;;;;;10.65;3.08;;;16.20;99.90;;;;;;5081374;28;20051;-59
2023/05/19 09:55:49;;;;;;;10.07;3.13;;;16.20;99.90;;;;;;5101225;28;20082;-58
2023/05/19 09:58:17;;;;;;;9.15;3.15;;;16.10;99.90;;;;;;5100113;28;20051;-59
2023/05/19 10:00:44;;;;;;;9.25;3.10;;;16.30;99.90;;;;;;5099778;28;20076;-58
2023/05/19 10:03:10;;;;;;;8.73;2.85;;;16.40;99.90;;;;;;5100891;28;20070;-57
2023/05/19 10:05:37;;;;;;;11.90;3.28;;;16.40;99.90;;;;;;5098976;28;20048;-58
2023/05/19 10:08:06;;;;;;;11.05;3.20;;;16.50;99.90;;;;;;5101021;28;20063;-58
2023/05/19 10:10:32;;;;;;;7.85;2.97;;;16.70;99.90;;;;;;5099247;28;20103;-57
2023/05/19 10:12:59;;;;;;;10.80;2.95;;;16.70;99.90;;;;;;5100829;28;20056;-58
2023/05/19 10:15:26;;;;;;;9.80;2.95;;;16.90;99.90;;;;;;5099816;28;20054;-58
2023/05/19 10:17:52;;;;;;;10.43;3.08;;;16.80;99.90;;;;;;5099873;28;20044;-58
2023/05/19 10:20:18;;;;;;;9.07;3.33;;;16.90;99.60;;;;;;5100655;28;20040;-58
2023/05/19 10:22:45;;;;;;;11.23;3.28;;;17.00;99.90;;;;;;5098954;28;20449;-58
2023/05/19 10:25:17;;;;;;;7.95;3.05;;;17.00;99.80;;;;;;5100781;28;20040;-58
2023/05/19 10:27:45;;;;;;;;;;;17.00;99.90;;;;;;5099396;28;20083;-59
2023/05/19 10:30:17;;;;;;;8.20;3.38;;;17.10;99.10;;;;;;5100051;28;19920;-58
2023/05/19 10:32:47;;;;;;;8.23;2.58;;;17.10;99.90;;;;;;5099730;28;20044;-57
2023/05/19 10:35:39;;;;;;;7.25;2.83;;;17.00;99.70;;;;;;5098939;28;20746;-58
2023/05/19 10:38:26;;;;;;;;;;;17.20;99.90;;;;;;5096043;28;20071;-58
2023/05/19 10:41:12;;;;;;;9.10;3.20;;;17.30;98.30;;;;;;5098862;28;19931;-58
2023/05/19 10:44:17;;;;;;;9.90;3.13;;;17.30;99.90;;;;;;5099017;28;20036;-58
2023/05/19 10:46:42;;;;;;;8.45;3.22;;;17.30;97.30;;;;;;5048523;28;20423;-57
2023/05/19 10:49:08;;;;;;;12.65;2.95;;;17.40;98.40;;;;;;5098199;28;20047;-57
2023/05/19 10:51:35;;;;;;;10.80;3.00;;;17.40;98.50;;;;;;5081884;28;20393;-58
2023/05/19 10:54:01;;;;;;;19.17;4.68;;;17.10;98.00;;;;;;5099056;28;20495;-57
2023/05/19 10:56:33;;;;;;;7.93;3.13;;;17.00;97.10;;;;;;5098848;28;20112;-58
2023/05/19 10:59:00;;;;;;;8.80;3.42;;;17.10;97.20;;;;;;5099903;28;20411;-58
2023/05/19 11:01:33;;;;;;;8.98;3.00;;;17.20;97.10;;;;;;5097257;28;20067;-58
2023/05/19 11:04:07;;;;;;;10.02;3.08;;;17.30;97.70;;;;;;5100319;28;20441;-57
2023/05/19 11:06:35;;;;;;;11.10;3.97;;;17.50;97.00;;;;;;5098112;28;20047;-58
2023/05/19 11:09:10;;;;;;;8.85;3.25;;;17.50;97.40;;;;;;5099189;28;20055;-58
2023/05/19 11:12:02;;;;;;;9.05;3.40;;;17.50;96.50;;;;;;5099569;28;20055;-58
2023/05/19 11:14:29;;;;;;;7.57;3.17;;;17.30;95.80;;;;;;5093028;28;20056;-58
2023/05/19 11:16:59;;;;;;;10.20;3.15;;;17.60;96.50;;;;;;5100066;28;20055;-58
2023/05/19 11:19:33;;;;;;;14.00;3.40;;;17.70;95.80;;;;;;5097815;28;20048;-58
2023/05/19 11:22:12;;;;;;;9.27;2.70;;;17.80;95.00;;;;;;5098858;28;20043;-57
2023/05/19 11:24:43;;;;;;;8.00;3.05;;;18.00;96.30;;;;;;5099333;28;20427;-57
2023/05/19 11:27:34;;;;;;;10.68;4.03;;;18.00;95.10;;;;;;5097603;28;20434;-58
2023/05/19 11:30:18;;;;;;;10.35;3.78;;;18.00;96.50;;;;;;5099308;28;20048;-58
2023/05/19 11:32:46;;;;;;;9.98;3.53;;;18.00;96.60;;;;;;5098614;28;20048;-58
2023/05/19 11:35:13;;;;;;;10.70;3.55;;;18.10;96.80;;;;;;5097893;28;20092;-57
2023/05/19 11:37:40;;;;;;;8.75;3.45;;;18.00;96.30;;;;;;5099018;28;20040;-58
2023/05/19 11:40:06;;;;;;;13.35;5.05;;;18.10;97.90;;;;;;5097482;28;20523;-56
2023/05/19 11:42:36;;;;;;;8.80;3.53;;;17.80;97.50;;;;;;5099299;28;20044;-58
2023/05/19 11:45:03;;;;;;;8.70;3.33;;;17.90;96.80;;;;;;5097561;28;20112;-58
2023/05/19 11:47:31;;;;;;;10.43;3.92;;;17.70;97.00;;;;;;5098911;28;20086;-58
2023/05/19 11:49:57;;;;;;;7.47;2.95;;;18.00;97.80;;;;;;5098350;28;20116;-58
2023/05/19 11:52:26;;;;;;;8.70;3.42;;;18.00;98.00;;;;;;5097801;28;20036;-58
2023/05/19 11:54:52;;;;;;;8.23;3.40;;;18.00;97.80;;;;;;5080496;28;20040;-58
2023/05/19 11:57:18;;;;;;;9.55;3.80;;;18.00;96.30;;;;;;5096982;28;20491;-58
2023/05/19 11:59:46;;;;;;;9.38;3.40;;;17.90;97.40;;;;;;5098846;28;20044;-58
2023/05/19 12:02:20;;;;;;;10.07;3.40;;;18.00;97.60;;;;;;5097236;28;20484;-58
2023/05/19 12:04:49;;;;;;;10.20;3.65;;;18.10;97.60;;;;;;5098199;28;20103;-58
2023/05/19 12:07:17;;;;;;;7.88;3.17;;;18.10;96.80;;;;;;5098420;28;20067;-57
2023/05/19 12:09:46;;;;;;;7.05;2.88;;;18.30;97.40;;;;;;5097041;28;20047;-58
2023/05/19 12:12:19;;;;;;;8.85;2.88;;;18.20;97.20;;;;;;5098291;28;20453;-58
2023/05/19 12:14:50;;;;;;;10.27;3.20;;;18.30;97.00;;;;;;5097043;28;20079;-59
2023/05/19 12:17:28;;;;;;;8.80;3.27;;;18.50;96.50;;;;;;5098736;28;20077;-58
2023/05/19 12:19:54;;;;;;;7.75;3.38;;;18.50;97.10;;;;;;5098035;28;20872;-59
2023/05/19 12:22:20;;;;;;;10.23;3.25;;;18.30;95.80;;;;;;5097131;28;20072;-58
2023/05/19 12:24:46;;;;;;;7.57;2.78;;;18.50;96.10;;;;;;5098560;28;20086;-58
2023/05/19 12:27:22;;;;;;;9.43;3.35;;;18.50;95.30;;;;;;5096903;28;20462;-58
2023/05/19 12:29:51;;;;;;;9.13;2.92;;;18.50;95.00;;;;;;5098516;28;20099;-58
2023/05/19 12:32:17;;;;;;;8.15;2.58;;;18.70;94.90;;;;;;5097218;28;20052;-58
2023/05/19 12:34:43;;;;;;;8.35;3.00;;;18.80;95.90;;;;;;5097976;28;20050;-59
2023/05/19 12:37:10;;;;;;;11.65;3.33;;;18.70;94.70;;;;;;5098032;28;20456;-58
2023/05/19 12:39:36;;;;;;;8.30;2.85;;;18.80;94.40;;;;;;5096893;28;20058;-55
2023/05/19 12:42:09;;;;;;;8.63;2.97;;;18.90;95.20;;;;;;5098400;28;20064;-58
2023/05/19 12:44:51;;;;;;;8.95;3.17;;;18.80;94.30;;;;;;5096466;28;20075;-58
2023/05/19 12:47:18;;;;;;;;;;;18.80;94.50;;;;;;5098698;28;20076;-58
2023/05/19 12:49:59;;;;;;;8.52;3.03;;;18.80;94.40;;;;;;5097493;28;19959;-57
2023/05/19 12:52:28;;;;;;;6.90;3.00;;;18.60;94.40;;;;;;5096828;28;20074;-58